Time;durP1;ratioP1;P1;durP2;ratioP2;P2;SDS_P1;SDS_P2;PMS_P1;PMS_P2;Temp;Humidity;BMP_temperature;BMP_pressure;BME280_temperature;BME280_humidity;BME280_pressure;Samples;Min_cycle;Max_cycle;Signal;HPM_P1;HPM_P2
2021/09/05 00:02:11;;;;;;;59.10;31.43;;;16.00;99.90;;;;;;5082556;28;20232;-64
2021/09/05 00:04:39;;;;;;;62.37;33.37;;;15.90;99.90;;;;;;5084313;28;20312;-64
2021/09/05 00:07:08;;;;;;;57.57;32.47;;;15.90;99.90;;;;;;5067262;28;20207;-64
2021/09/05 00:09:37;;;;;;;55.57;31.60;;;15.90;99.90;;;;;;5082577;28;20234;-64
2021/09/05 00:12:08;;;;;;;62.47;32.80;;;15.90;99.90;;;;;;5087556;28;20364;-64
2021/09/05 00:14:39;;;;;;;54.77;31.23;;;15.90;99.90;;;;;;5065520;28;20190;-64
2021/09/05 00:17:08;;;;;;;64.60;32.17;;;15.90;99.90;;;;;;5088332;28;20176;-64
2021/09/05 00:19:36;;;;;;;59.27;31.47;;;15.80;99.90;;;;;;5071270;28;20176;-64
2021/09/05 00:22:05;;;;;;;61.73;32.87;;;15.80;99.90;;;;;;5066648;28;20421;-64
2021/09/05 00:24:33;;;;;;;70.97;36.63;;;15.80;99.90;;;;;;5067522;28;20185;-64
2021/09/05 00:27:01;;;;;;;71.10;36.17;;;15.80;99.90;;;;;;5085094;28;20434;-64
2021/09/05 00:29:33;;;;;;;75.23;36.83;;;15.80;99.90;;;;;;5066838;28;20180;-64
2021/09/05 00:32:02;;;;;;;74.50;37.50;;;15.90;99.90;;;;;;5081816;28;20199;-64
2021/09/05 00:34:31;;;;;;;76.07;37.97;;;15.90;99.90;;;;;;5064072;28;20385;-64
2021/09/05 00:36:59;;;;;;;79.30;39.57;;;15.90;99.90;;;;;;5086055;28;20187;-64
2021/09/05 00:39:27;;;;;;;77.40;37.60;;;15.90;99.90;;;;;;5089599;28;20187;-64
2021/09/05 00:41:55;;;;;;;83.47;38.67;;;15.90;99.90;;;;;;5085730;28;20192;-64
2021/09/05 00:44:24;;;;;;;80.60;37.50;;;15.90;99.90;;;;;;5083333;28;20176;-64
2021/09/05 00:46:54;;;;;;;78.50;38.30;;;15.90;99.90;;;;;;5082416;28;20192;-65
2021/09/05 00:49:22;;;;;;;75.53;37.43;;;15.80;99.90;;;;;;5084064;28;20188;-64
2021/09/05 00:51:50;;;;;;;68.93;36.70;;;15.70;99.90;;;;;;5062884;28;20208;-64
2021/09/05 00:54:19;;;;;;;70.20;35.47;;;15.70;99.90;;;;;;5080684;28;20234;-64
2021/09/05 00:56:47;;;;;;;72.87;38.03;;;15.70;99.90;;;;;;5082173;28;20178;-64
2021/09/05 00:59:18;;;;;;;70.97;34.43;;;15.60;99.90;;;;;;5066432;28;20215;-64
2021/09/05 01:01:47;;;;;;;75.23;36.43;;;15.60;99.90;;;;;;5080290;28;20208;-64
2021/09/05 01:04:17;;;;;;;82.30;38.90;;;15.50;99.90;;;;;;5082939;28;20318;-65
2021/09/05 01:06:46;;;;;;;88.77;39.07;;;15.50;99.90;;;;;;5077283;28;20200;-64
2021/09/05 01:09:14;;;;;;;87.03;39.90;;;15.60;99.90;;;;;;5082360;28;20200;-64
2021/09/05 01:11:43;;;;;;;81.10;39.17;;;15.60;99.90;;;;;;5083227;28;20429;-64
2021/09/05 01:14:11;;;;;;;74.77;37.03;;;15.60;99.90;;;;;;5064084;28;20352;-64
2021/09/05 01:16:41;;;;;;;79.30;38.43;;;15.50;99.90;;;;;;5088262;28;20181;-64
2021/09/05 01:19:12;;;;;;;79.57;38.33;;;15.50;99.90;;;;;;5086387;28;20447;-64
2021/09/05 01:21:43;;;;;;;80.40;38.27;;;15.50;99.90;;;;;;5052240;28;20305;-64
2021/09/05 01:24:13;;;;;;;78.90;38.83;;;15.50;99.90;;;;;;5081039;28;20407;-64
2021/09/05 01:26:44;;;;;;;76.23;36.37;;;15.50;99.90;;;;;;5085691;28;20219;-64
2021/09/05 01:29:14;;;;;;;80.63;36.60;;;15.50;99.90;;;;;;5082841;28;20396;-64
2021/09/05 01:31:45;;;;;;;76.37;37.10;;;15.50;99.90;;;;;;5081377;28;20346;-65
2021/09/05 01:34:15;;;;;;;80.27;37.97;;;15.40;99.90;;;;;;5077024;28;20179;-64
2021/09/05 01:36:44;;;;;;;73.57;36.80;;;15.40;99.90;;;;;;5084655;28;20176;-64
2021/09/05 01:39:14;;;;;;;79.00;38.07;;;15.30;99.90;;;;;;5085806;28;20315;-64
2021/09/05 01:41:44;;;;;;;80.77;38.77;;;15.30;99.90;;;;;;5085314;28;20200;-64
2021/09/05 01:44:17;;;;;;;78.63;38.63;;;15.30;99.90;;;;;;5080926;28;20187;-65
2021/09/05 01:46:46;;;;;;;74.67;37.07;;;15.30;99.90;;;;;;5079276;28;20200;-64
2021/09/05 01:49:14;;;;;;;75.00;38.30;;;15.30;99.90;;;;;;5086216;28;20325;-64
2021/09/05 01:51:43;;;;;;;79.73;37.63;;;15.20;99.90;;;;;;5082498;28;20204;-65
2021/09/05 01:54:11;;;;;;;83.43;38.13;;;15.20;99.90;;;;;;5090021;28;20194;-64
2021/09/05 01:56:40;;;;;;;81.90;39.23;;;15.20;99.90;;;;;;5062173;28;20164;-64
2021/09/05 01:59:08;;;;;;;75.80;36.77;;;15.20;99.90;;;;;;5083290;28;20244;-64
2021/09/05 02:01:38;;;;;;;65.70;33.33;;;15.20;99.90;;;;;;5066913;28;20215;-64
2021/09/05 02:04:07;;;;;;;70.17;35.40;;;15.10;99.90;;;;;;5078166;28;20218;-64
2021/09/05 02:06:35;;;;;;;77.57;38.70;;;15.10;99.90;;;;;;5080467;28;20268;-64
2021/09/05 02:09:03;;;;;;;75.57;37.47;;;15.00;99.90;;;;;;5080337;28;20177;-64
2021/09/05 02:11:32;;;;;;;80.07;38.53;;;15.00;99.90;;;;;;5076301;28;20180;-64
2021/09/05 02:14:00;;;;;;;75.87;36.60;;;14.90;99.90;;;;;;5077958;28;20229;-64
2021/09/05 02:16:29;;;;;;;74.17;36.43;;;14.90;99.90;;;;;;5081330;28;20180;-64
2021/09/05 02:18:58;;;;;;;69.77;35.87;;;14.90;99.90;;;;;;5082023;28;20188;-64
2021/09/05 02:21:27;;;;;;;73.60;34.53;;;14.90;99.90;;;;;;5063800;28;20261;-64
2021/09/05 02:23:55;;;;;;;66.93;33.67;;;14.80;99.90;;;;;;5080011;28;20191;-64
2021/09/05 02:26:24;;;;;;;61.47;32.00;;;14.80;99.90;;;;;;5074982;28;20206;-64
2021/09/05 02:28:52;;;;;;;61.13;30.73;;;14.80;99.90;;;;;;5068239;28;20467;-64
2021/09/05 02:31:21;;;;;;;66.77;32.50;;;14.70;99.90;;;;;;5082144;28;20179;-64
2021/09/05 02:33:49;;;;;;;72.00;34.47;;;14.70;99.90;;;;;;5087884;28;20175;-64
2021/09/05 02:36:19;;;;;;;76.33;35.53;;;14.60;99.90;;;;;;5081720;28;20195;-64
2021/09/05 02:38:47;;;;;;;72.03;35.30;;;14.60;99.90;;;;;;5081557;28;20448;-64
2021/09/05 02:41:15;;;;;;;80.13;38.23;;;14.70;99.90;;;;;;5065558;28;20186;-64
2021/09/05 02:43:44;;;;;;;73.40;35.40;;;14.70;99.90;;;;;;5084352;28;20179;-64
2021/09/05 02:46:13;;;;;;;70.23;34.90;;;14.70;99.90;;;;;;5080822;28;20177;-64
2021/09/05 02:48:41;;;;;;;68.30;33.73;;;14.60;99.90;;;;;;5087113;28;20207;-64
2021/09/05 02:51:09;;;;;;;72.17;35.50;;;14.50;99.90;;;;;;5081790;28;20180;-64
2021/09/05 02:53:39;;;;;;;74.93;36.07;;;14.50;99.90;;;;;;5078742;28;20290;-65
2021/09/05 02:56:07;;;;;;;84.17;39.93;;;14.50;99.90;;;;;;5061219;28;20203;-64
2021/09/05 02:58:36;;;;;;;89.23;41.27;;;14.50;99.90;;;;;;5083818;28;20172;-64
2021/09/05 03:01:04;;;;;;;78.30;38.73;;;14.50;99.90;;;;;;5078073;28;20266;-64
2021/09/05 03:03:33;;;;;;;78.73;37.90;;;14.60;99.90;;;;;;5080769;28;20196;-64
2021/09/05 03:06:01;;;;;;;84.13;38.00;;;14.50;99.90;;;;;;5081270;28;20188;-64
2021/09/05 03:08:30;;;;;;;77.30;36.43;;;14.50;99.90;;;;;;5064311;28;20195;-64
2021/09/05 03:10:59;;;;;;;74.40;36.27;;;14.40;99.90;;;;;;5078957;28;20208;-64
2021/09/05 03:13:27;;;;;;;70.67;35.37;;;14.40;99.90;;;;;;5080043;28;20242;-64
2021/09/05 03:15:56;;;;;;;75.00;35.20;;;14.40;99.90;;;;;;5080226;28;20208;-64
2021/09/05 03:18:24;;;;;;;79.30;37.47;;;14.40;99.90;;;;;;5082023;28;20187;-64
2021/09/05 03:20:52;;;;;;;83.70;37.73;;;14.40;99.90;;;;;;5081070;28;20430;-64
2021/09/05 03:23:21;;;;;;;79.93;36.87;;;14.40;99.90;;;;;;5080781;28;20183;-64
2021/09/05 03:25:49;;;;;;;89.53;38.10;;;14.40;99.90;;;;;;5082798;28;20317;-64
2021/09/05 03:28:19;;;;;;;83.27;37.43;;;14.40;99.90;;;;;;5087343;28;20229;-64
2021/09/05 03:30:47;;;;;;;86.50;39.47;;;14.40;99.90;;;;;;5082364;28;20221;-65
2021/09/05 03:33:16;;;;;;;86.73;39.17;;;14.40;99.90;;;;;;5081414;28;20183;-64
2021/09/05 03:35:44;;;;;;;86.67;39.10;;;14.40;99.90;;;;;;5086217;28;20176;-64
2021/09/05 03:38:13;;;;;;;79.30;37.13;;;14.40;99.90;;;;;;5082712;28;20632;-64
2021/09/05 03:40:41;;;;;;;78.03;36.20;;;14.40;99.90;;;;;;5080954;28;20183;-64
2021/09/05 03:43:11;;;;;;;77.87;37.00;;;14.30;99.90;;;;;;5082315;28;20322;-64
2021/09/05 03:45:41;;;;;;;76.00;36.27;;;14.30;99.90;;;;;;5078959;28;20227;-64
2021/09/05 03:48:09;;;;;;;83.83;36.47;;;14.20;99.90;;;;;;5084522;28;20201;-64
2021/09/05 03:50:37;;;;;;;72.23;35.53;;;14.20;99.90;;;;;;5066241;28;20200;-64
2021/09/05 03:53:06;;;;;;;78.40;37.40;;;14.20;99.90;;;;;;5083507;28;20183;-64
2021/09/05 03:55:34;;;;;;;86.00;38.37;;;14.20;99.90;;;;;;5069094;28;20206;-64
2021/09/05 03:58:03;;;;;;;83.93;37.60;;;14.20;99.90;;;;;;5083366;28;20207;-64
2021/09/05 04:00:32;;;;;;;90.10;38.80;;;14.20;99.90;;;;;;5079445;28;20317;-64
2021/09/05 04:03:02;;;;;;;92.67;38.63;;;14.20;99.90;;;;;;5063197;28;20357;-64
2021/09/05 04:05:31;;;;;;;82.17;37.87;;;14.20;99.90;;;;;;5080457;28;20183;-63
2021/09/05 04:08:14;;;;;;;76.40;36.80;;;14.20;99.90;;;;;;5080264;28;20214;-64
2021/09/05 04:10:43;;;;;;;83.07;37.70;;;14.10;99.90;;;;;;5080645;28;20314;-63
2021/09/05 04:13:13;;;;;;;87.83;39.07;;;14.10;99.90;;;;;;5062200;28;20242;-64
2021/09/05 04:15:42;;;;;;;82.03;38.13;;;14.10;99.90;;;;;;5083010;28;20222;-64
2021/09/05 04:18:12;;;;;;;82.23;37.33;;;14.10;99.90;;;;;;5062337;28;20321;-64
2021/09/05 04:20:40;;;;;;;84.50;39.67;;;14.10;99.90;;;;;;5084624;28;20175;-64
2021/09/05 04:23:08;;;;;;;87.53;39.53;;;14.10;99.90;;;;;;5089528;28;20176;-64
2021/09/05 04:25:37;;;;;;;79.27;37.67;;;14.10;99.90;;;;;;5083521;28;20418;-64
2021/09/05 04:28:06;;;;;;;83.03;37.60;;;14.10;99.90;;;;;;5078993;28;20207;-64
2021/09/05 04:30:34;;;;;;;78.83;37.07;;;14.00;99.90;;;;;;5070734;28;20425;-64
2021/09/05 04:33:03;;;;;;;75.20;36.37;;;14.00;99.90;;;;;;5065359;28;20184;-64
2021/09/05 04:35:33;;;;;;;77.23;35.10;;;14.00;99.90;;;;;;5089332;28;20176;-64
2021/09/05 04:38:01;;;;;;;74.87;34.97;;;13.90;99.90;;;;;;5066049;28;20437;-64
2021/09/05 04:40:30;;;;;;;72.47;35.57;;;13.90;99.90;;;;;;5081085;28;20188;-64
2021/09/05 04:42:58;;;;;;;70.03;33.77;;;13.80;99.90;;;;;;5082475;28;20201;-64
2021/09/05 04:45:26;;;;;;;72.73;34.23;;;13.80;99.90;;;;;;5080519;28;20176;-64
2021/09/05 04:47:55;;;;;;;78.53;35.63;;;13.70;99.90;;;;;;5086456;28;20352;-64
2021/09/05 04:50:23;;;;;;;73.30;34.43;;;13.70;99.90;;;;;;5087097;28;20191;-64
2021/09/05 04:52:53;;;;;;;74.80;36.57;;;13.60;99.90;;;;;;5089477;28;20436;-64
2021/09/05 04:55:21;;;;;;;71.80;35.07;;;13.60;99.90;;;;;;5082972;28;20425;-64
2021/09/05 04:57:50;;;;;;;73.67;34.70;;;13.60;99.90;;;;;;5082947;28;20176;-64
2021/09/05 05:00:18;;;;;;;71.00;33.37;;;13.60;99.90;;;;;;5085401;28;20180;-64
2021/09/05 05:02:47;;;;;;;73.80;34.27;;;13.60;99.90;;;;;;5084107;28;20219;-63
2021/09/05 05:05:16;;;;;;;79.20;35.50;;;13.60;99.90;;;;;;5082272;28;20188;-64
2021/09/05 05:07:44;;;;;;;80.60;36.03;;;13.60;99.90;;;;;;5084059;28;20199;-64
2021/09/05 05:10:13;;;;;;;82.93;36.80;;;13.70;99.90;;;;;;5081878;28;20203;-64
2021/09/05 05:12:42;;;;;;;83.07;37.87;;;13.70;99.90;;;;;;5066122;28;20203;-64
2021/09/05 05:15:11;;;;;;;79.13;37.70;;;13.80;99.90;;;;;;5089443;28;20172;-64
2021/09/05 05:17:39;;;;;;;84.00;38.47;;;13.90;99.90;;;;;;5066541;28;20181;-64
2021/09/05 05:20:11;;;;;;;83.73;37.97;;;14.00;99.90;;;;;;5086285;28;20184;-64
2021/09/05 05:22:42;;;;;;;80.17;36.90;;;14.00;99.90;;;;;;5085260;28;20203;-64
2021/09/05 05:25:11;;;;;;;80.93;36.83;;;14.10;99.90;;;;;;5089885;28;20182;-64
2021/09/05 05:27:41;;;;;;;83.93;37.70;;;14.20;99.90;;;;;;5079767;28;20219;-63
2021/09/05 05:30:10;;;;;;;79.17;35.70;;;14.10;99.90;;;;;;5081248;28;20199;-64
2021/09/05 05:32:39;;;;;;;82.23;35.70;;;14.10;99.90;;;;;;5079952;28;20187;-63
2021/09/05 05:35:08;;;;;;;84.90;38.03;;;14.10;99.90;;;;;;5080218;28;20202;-64
2021/09/05 05:37:36;;;;;;;83.17;37.87;;;14.20;99.90;;;;;;5086263;28;20211;-64
2021/09/05 05:40:07;;;;;;;81.30;35.87;;;14.20;99.90;;;;;;5084418;28;20382;-64
2021/09/05 05:42:35;;;;;;;79.03;36.77;;;14.20;99.90;;;;;;5086964;28;20444;-64
2021/09/05 05:45:06;;;;;;;78.70;36.73;;;14.20;99.90;;;;;;5086245;28;20180;-64
2021/09/05 05:47:35;;;;;;;78.47;36.87;;;14.30;99.90;;;;;;5078841;28;20188;-64
2021/09/05 05:50:04;;;;;;;78.60;34.70;;;14.30;99.90;;;;;;5083386;28;20488;-63
2021/09/05 05:52:32;;;;;;;76.20;36.47;;;14.30;99.90;;;;;;5085749;28;20332;-64
2021/09/05 05:55:01;;;;;;;78.37;36.27;;;14.30;99.90;;;;;;5086210;28;20176;-64
2021/09/05 05:57:29;;;;;;;81.77;37.13;;;14.30;99.90;;;;;;5083602;28;20183;-64
2021/09/05 05:59:58;;;;;;;77.77;35.47;;;14.30;99.90;;;;;;5079776;28;20176;-64
2021/09/05 06:02:28;;;;;;;77.30;36.63;;;14.30;99.90;;;;;;5083306;28;20235;-64
2021/09/05 06:04:56;;;;;;;69.23;33.57;;;14.40;99.90;;;;;;5083937;28;20222;-64
2021/09/05 06:07:26;;;;;;;65.73;32.67;;;14.40;99.90;;;;;;5082365;28;20229;-64
2021/09/05 06:09:55;;;;;;;72.17;35.13;;;14.40;99.90;;;;;;5083693;28;20215;-64
2021/09/05 06:12:23;;;;;;;71.57;35.50;;;14.40;99.90;;;;;;5082603;28;20180;-64
2021/09/05 06:14:51;;;;;;;69.17;34.83;;;14.50;99.90;;;;;;5066994;28;20188;-64
2021/09/05 06:17:21;;;;;;;71.00;34.40;;;14.60;99.90;;;;;;5084930;28;20180;-64
2021/09/05 06:19:51;;;;;;;68.07;34.43;;;14.70;99.90;;;;;;5082453;28;20176;-64
2021/09/05 06:22:19;;;;;;;72.23;34.30;;;14.80;99.90;;;;;;5081896;28;20183;-64
2021/09/05 06:24:50;;;;;;;67.03;33.93;;;14.80;99.90;;;;;;5083956;28;20180;-64
2021/09/05 06:27:19;;;;;;;67.07;33.37;;;14.90;99.90;;;;;;5083460;28;20180;-64
2021/09/05 06:29:47;;;;;;;60.63;32.03;;;15.00;99.90;;;;;;5080133;28;20200;-64
2021/09/05 06:32:16;;;;;;;67.93;33.63;;;15.10;99.90;;;;;;5080713;28;20428;-63
2021/09/05 06:34:44;;;;;;;64.80;32.90;;;15.10;99.90;;;;;;5085538;28;20195;-64
2021/09/05 06:37:14;;;;;;;63.70;33.20;;;15.20;99.90;;;;;;5064272;28;20307;-64
2021/09/05 06:39:42;;;;;;;64.10;32.23;;;15.20;99.90;;;;;;5068975;28;20303;-64
2021/09/05 06:42:11;;;;;;;64.67;33.43;;;15.30;99.90;;;;;;5066130;28;20187;-64
2021/09/05 06:44:39;;;;;;;64.30;32.33;;;15.40;99.90;;;;;;5088055;28;20180;-64
2021/09/05 06:47:08;;;;;;;61.13;32.17;;;15.50;99.90;;;;;;5086904;28;20324;-64
2021/09/05 06:49:36;;;;;;;60.17;31.30;;;15.60;99.90;;;;;;5082764;28;20205;-64
2021/09/05 06:52:05;;;;;;;60.77;30.50;;;15.70;99.90;;;;;;5089879;28;20348;-64
2021/09/05 06:54:35;;;;;;;61.00;32.13;;;15.80;99.90;;;;;;5088084;28;20290;-64
2021/09/05 06:57:04;;;;;;;59.97;31.67;;;15.80;99.90;;;;;;5091702;28;20180;-64
2021/09/05 06:59:33;;;;;;;62.77;31.37;;;15.80;99.90;;;;;;5083797;28;20200;-64
2021/09/05 07:02:02;;;;;;;61.60;31.17;;;15.80;99.90;;;;;;5079835;28;20218;-64
2021/09/05 07:04:33;;;;;;;59.00;31.47;;;15.80;99.90;;;;;;5091454;28;20441;-64
2021/09/05 07:07:01;;;;;;;51.97;30.23;;;15.90;99.90;;;;;;5086454;28;20432;-64
2021/09/05 07:09:30;;;;;;;60.60;31.10;;;16.00;99.90;;;;;;5080658;28;20200;-64
2021/09/05 07:11:59;;;;;;;57.10;30.37;;;16.10;99.90;;;;;;5081833;28;20222;-64
2021/09/05 07:14:28;;;;;;;58.17;31.90;;;16.20;99.90;;;;;;5073084;28;20192;-64
2021/09/05 07:16:56;;;;;;;53.90;31.27;;;16.20;99.90;;;;;;5076771;28;20195;-64
2021/09/05 07:19:24;;;;;;;56.63;31.33;;;16.40;99.90;;;;;;5062552;28;20173;-64
2021/09/05 07:21:52;;;;;;;53.33;30.87;;;16.50;99.90;;;;;;5081000;28;20196;-64
2021/09/05 07:24:21;;;;;;;56.70;30.00;;;16.70;99.90;;;;;;5078616;28;20341;-64
2021/09/05 07:26:49;;;;;;;58.97;30.63;;;16.80;99.90;;;;;;5076176;28;20188;-64
2021/09/05 07:29:19;;;;;;;48.77;28.73;;;16.90;99.90;;;;;;5076265;28;20243;-64
2021/09/05 07:31:47;;;;;;;53.00;29.50;;;17.10;99.90;;;;;;5079088;28;20219;-64
2021/09/05 07:34:15;;;;;;;57.03;30.50;;;17.30;99.90;;;;;;5076228;28;20191;-64
2021/09/05 07:36:43;;;;;;;54.27;29.60;;;17.30;99.90;;;;;;5078429;28;20180;-65
2021/09/05 07:39:12;;;;;;;53.23;29.27;;;17.30;99.90;;;;;;5082075;28;20288;-64
2021/09/05 07:41:41;;;;;;;54.50;29.80;;;17.40;99.90;;;;;;5082735;28;20219;-64
2021/09/05 07:44:09;;;;;;;49.33;28.73;;;17.50;99.90;;;;;;5080841;28;20419;-64
2021/09/05 07:46:39;;;;;;;51.57;30.03;;;17.50;99.90;;;;;;5060858;28;20265;-64
2021/09/05 07:49:07;;;;;;;58.53;30.30;;;17.60;99.90;;;;;;5060041;28;20425;-65
2021/09/05 07:51:35;;;;;;;63.20;31.80;;;17.80;99.90;;;;;;5080607;28;20196;-65
2021/09/05 07:54:04;;;;;;;54.63;30.37;;;18.10;99.90;;;;;;5067726;28;20336;-64
2021/09/05 07:56:32;;;;;;;53.13;30.27;;;18.40;99.90;;;;;;5081230;28;20172;-64
2021/09/05 07:59:00;;;;;;;52.73;31.03;;;18.50;99.90;;;;;;5078451;28;20262;-65
2021/09/05 08:01:29;;;;;;;55.77;30.93;;;18.50;99.90;;;;;;5077871;28;20220;-64
2021/09/05 08:03:59;;;;;;;49.33;29.67;;;18.50;99.90;;;;;;5081415;28;20441;-64
2021/09/05 08:06:28;;;;;;;54.53;29.67;;;18.50;99.90;;;;;;5088375;28;20183;-64
2021/09/05 08:08:58;;;;;;;53.03;29.97;;;18.60;99.90;;;;;;5082387;28;20371;-64
2021/09/05 08:11:26;;;;;;;52.37;29.47;;;18.70;99.90;;;;;;5086468;28;20204;-64
2021/09/05 08:13:55;;;;;;;51.67;29.40;;;18.80;99.90;;;;;;5087113;28;20180;-64
2021/09/05 08:16:26;;;;;;;59.80;30.03;;;19.10;99.90;;;;;;5078748;28;20180;-67
2021/09/05 08:18:54;;;;;;;51.03;28.80;;;19.20;99.90;;;;;;5090405;28;20180;-66
2021/09/05 08:21:24;;;;;;;52.07;30.37;;;19.10;99.90;;;;;;5081296;28;20218;-66
2021/09/05 08:23:52;;;;;;;50.63;30.23;;;19.20;99.90;;;;;;5082818;28;20195;-66
2021/09/05 08:26:23;;;;;;;49.40;28.57;;;19.20;99.90;;;;;;5083321;28;20184;-66
2021/09/05 08:28:52;;;;;;;55.27;30.33;;;19.10;99.90;;;;;;5085527;28;20187;-66
2021/09/05 08:31:21;;;;;;;50.83;28.97;;;19.10;99.90;;;;;;5070592;28;20223;-66
2021/09/05 08:33:50;;;;;;;52.63;28.73;;;19.10;99.90;;;;;;5069356;28;20180;-66
2021/09/05 08:36:18;;;;;;;52.97;30.07;;;19.20;99.90;;;;;;5083417;28;20233;-66
2021/09/05 08:38:48;;;;;;;59.90;30.97;;;19.50;99.90;;;;;;5084094;28;20183;-66
2021/09/05 08:41:17;;;;;;;51.00;29.37;;;19.70;99.90;;;;;;5083840;28;20456;-66
2021/09/05 08:43:45;;;;;;;55.00;29.53;;;19.80;99.90;;;;;;5084810;28;20191;-63
2021/09/05 08:46:14;;;;;;;52.67;29.53;;;19.90;99.90;;;;;;5082962;28;20499;-63
2021/09/05 08:48:44;;;;;;;51.40;28.67;;;19.90;99.90;;;;;;5089270;28;20184;-63
2021/09/05 08:51:12;;;;;;;53.50;29.40;;;20.00;99.90;;;;;;5082334;28;20454;-63
2021/09/05 08:53:41;;;;;;;49.67;29.53;;;20.20;99.90;;;;;;5082583;28;20418;-63
2021/09/05 08:56:11;;;;;;;49.27;28.63;;;20.40;99.90;;;;;;5080976;28;20180;-64
2021/09/05 08:58:40;;;;;;;56.93;29.97;;;20.40;99.90;;;;;;5081662;28;20315;-64
2021/09/05 09:01:20;;;;;;;47.93;28.67;;;20.50;99.90;;;;;;5081652;28;20477;-64
2021/09/05 09:03:48;;;;;;;48.50;28.40;;;20.60;99.90;;;;;;5084084;28;20190;-64
2021/09/05 09:06:19;;;;;;;50.77;28.27;;;20.70;99.90;;;;;;5080079;28;20219;-64
2021/09/05 09:08:57;;;;;;;52.63;30.63;;;20.80;99.90;;;;;;5082667;28;20185;-64
2021/09/05 09:11:27;;;;;;;51.07;28.47;;;21.00;99.90;;;;;;5083508;28;20514;-64
2021/09/05 09:13:57;;;;;;;49.10;28.33;;;21.10;99.90;;;;;;5063749;28;20446;-64
2021/09/05 09:16:36;;;;;;;47.17;27.83;;;21.10;99.90;;;;;;5082762;28;20227;-64
2021/09/05 09:19:05;;;;;;;48.63;28.37;;;21.10;99.90;;;;;;5083213;28;20439;-64
2021/09/05 09:21:39;;;;;;;45.87;26.20;;;21.30;99.90;;;;;;5077564;28;20322;-63
2021/09/05 09:24:13;;;;;;;47.90;27.47;;;21.60;99.90;;;;;;5079741;28;20225;-64
2021/09/05 09:26:54;;;;;;;44.83;27.03;;;21.80;99.90;;;;;;5083435;28;20188;-64
2021/09/05 09:29:22;;;;;;;42.03;26.53;;;21.80;99.90;;;;;;5065845;28;20184;-64
2021/09/05 09:31:58;;;;;;;45.10;26.13;;;21.80;99.90;;;;;;5083292;28;20210;-64
2021/09/05 09:34:26;;;;;;;41.97;25.20;;;21.90;99.90;;;;;;5084248;28;20491;-64
2021/09/05 09:36:59;;;;;;;44.20;24.33;;;22.20;99.90;;;;;;5082751;28;20235;-64
2021/09/05 09:39:29;;;;;;;35.80;23.27;;;22.40;99.90;;;;;;5082733;28;20176;-64
2021/09/05 09:41:59;;;;;;;33.27;21.80;;;22.50;99.90;;;;;;5082059;28;20176;-63
2021/09/05 09:44:30;;;;;;;39.20;23.77;;;22.70;99.90;;;;;;5084282;28;20184;-64
2021/09/05 09:47:10;;;;;;;44.93;22.73;;;22.90;99.90;;;;;;5080629;28;20493;-65
2021/09/05 09:49:49;;;;;;;36.13;23.47;;;23.00;99.90;;;;;;5090751;28;20179;-63
2021/09/05 09:52:18;;;;;;;34.30;22.80;;;23.10;99.90;;;;;;5073740;28;20212;-64
2021/09/05 09:54:47;;;;;;;38.57;23.70;;;23.30;99.90;;;;;;5084096;28;20524;-64
2021/09/05 09:57:17;;;;;;;35.70;23.53;;;23.40;99.90;;;;;;5056019;28;20299;-64
2021/09/05 09:59:45;;;;;;;37.80;22.70;;;23.50;99.90;;;;;;5086237;28;20185;-64
2021/09/05 10:02:18;;;;;;;35.13;22.10;;;23.50;99.90;;;;;;5083141;28;20236;-64
2021/09/05 10:04:49;;;;;;;34.10;21.27;;;23.70;99.90;;;;;;5084682;28;20174;-65
2021/09/05 10:07:18;;;;;;;34.97;21.63;;;23.90;99.90;;;;;;5092630;28;20368;-64
2021/09/05 10:09:47;;;;;;;32.37;21.27;;;23.90;99.90;;;;;;5086559;28;20405;-64
2021/09/05 10:12:19;;;;;;;31.60;20.70;;;24.00;99.90;;;;;;5084153;28;20255;-64
2021/09/05 10:14:52;;;;;;;32.10;20.87;;;24.10;99.90;;;;;;5091676;28;20186;-64
2021/09/05 10:17:22;;;;;;;35.97;22.37;;;24.20;99.90;;;;;;5089507;28;20181;-64
2021/09/05 10:19:51;;;;;;;35.37;21.67;;;24.20;99.90;;;;;;5072870;28;20223;-64
2021/09/05 10:22:23;;;;;;;33.43;21.47;;;24.20;99.90;;;;;;5079566;28;20178;-64
2021/09/05 10:24:54;;;;;;;33.33;20.10;;;24.20;99.90;;;;;;5079416;28;20325;-64
2021/09/05 10:27:31;;;;;;;32.17;21.60;;;24.30;99.90;;;;;;5086023;28;20672;-65
2021/09/05 10:30:20;;;;;;;33.43;21.67;;;24.50;99.90;;;;;;5081702;28;20192;-65
2021/09/05 10:32:53;;;;;;;32.10;20.83;;;24.50;99.90;;;;;;5088626;28;20469;-65
2021/09/05 10:35:45;;;;;;;29.90;20.00;;;24.50;99.90;;;;;;5084612;28;20188;-64
2021/09/05 10:38:26;;;;;;;30.53;20.67;;;24.90;99.90;;;;;;5080539;28;20250;-65
2021/09/05 10:40:57;;;;;;;27.63;19.57;;;24.90;99.90;;;;;;5078874;28;20188;-65
2021/09/05 10:44:04;;;;;;;30.87;21.10;;;24.90;99.90;;;;;;5081687;28;20250;-65
2021/09/05 10:46:36;;;;;;;30.70;20.07;;;25.00;99.90;;;;;;5079961;28;20302;-64
2021/09/05 10:49:05;;;;;;;26.87;18.70;;;25.20;99.90;;;;;;5079680;28;20191;-65
2021/09/05 10:51:37;;;;;;;26.30;18.50;;;25.30;99.90;;;;;;5089316;28;20221;-64
2021/09/05 10:54:07;;;;;;;29.77;20.23;;;25.30;99.90;;;;;;5082975;28;20214;-65
2021/09/05 10:56:37;;;;;;;25.43;18.43;;;25.50;99.90;;;;;;5083497;28;20214;-65
2021/09/05 10:59:08;;;;;;;31.13;18.87;;;25.70;99.90;;;;;;5061004;28;20272;-65
2021/09/05 11:01:38;;;;;;;24.43;17.43;;;25.90;99.90;;;;;;5063427;28;20208;-65
2021/09/05 11:04:39;;;;;;;27.23;17.57;;;26.10;99.90;;;;;;5085364;28;20180;-65
2021/09/05 11:07:10;;;;;;;26.67;17.83;;;26.20;99.90;;;;;;5079515;28;20184;-64
2021/09/05 11:09:50;;;;;;;21.27;14.07;;;26.10;99.90;;;;;;5086504;28;20206;-64
2021/09/05 11:12:35;;;;;;;19.63;14.73;;;26.20;99.90;;;;;;5079928;28;20199;-64
2021/09/05 11:15:10;;;;;;;25.37;14.60;;;26.30;99.90;;;;;;5082758;28;20197;-64
2021/09/05 11:17:38;;;;;;;19.87;13.03;;;26.30;99.90;;;;;;5082395;28;20191;-64
2021/09/05 11:20:12;;;;;;;16.43;11.07;;;26.20;99.90;;;;;;5067970;28;20194;-65
2021/09/05 11:22:42;;;;;;;17.93;13.00;;;26.20;99.90;;;;;;5062836;28;20203;-64
2021/09/05 11:25:23;;;;;;;19.30;12.87;;;26.30;99.90;;;;;;5083905;28;20233;-65
2021/09/05 11:28:05;;;;;;;18.77;12.83;;;26.40;99.90;;;;;;5085113;28;20192;-64
2021/09/05 11:30:58;;;;;;;16.63;11.87;;;26.30;99.90;;;;;;5066616;28;20349;-65
2021/09/05 11:33:28;;;;;;;14.47;10.63;;;26.60;99.90;;;;;;5081149;28;20183;-65
2021/09/05 11:35:58;;;;;;;14.57;11.50;;;26.70;99.90;;;;;;5083076;28;20177;-65
2021/09/05 11:38:29;;;;;;;19.63;14.90;;;26.90;99.90;;;;;;5083061;28;20466;-64
2021/09/05 11:40:58;;;;;;;17.88;14.10;;;27.00;99.90;;;;;;5078696;28;20255;-65
2021/09/05 11:43:31;;;;;;;18.10;13.48;;;27.20;99.90;;;;;;5083746;28;20176;-65
2021/09/05 11:46:09;;;;;;;15.98;11.73;;;27.20;99.90;;;;;;5083764;28;20176;-65
2021/09/05 11:48:37;;;;;;;18.33;13.07;;;27.50;99.90;;;;;;5080529;28;20250;-66
2021/09/05 11:51:06;;;;;;;18.00;12.02;;;27.60;99.90;;;;;;5065837;28;20464;-65
2021/09/05 11:53:34;;;;;;;16.98;13.32;;;27.60;99.90;;;;;;5075581;28;20240;-65
2021/09/05 11:56:02;;;;;;;15.63;12.48;;;27.50;99.90;;;;;;5060648;28;20177;-64
2021/09/05 11:58:31;;;;;;;13.57;10.52;;;27.70;99.90;;;;;;5083744;28;20184;-64
2021/09/05 12:01:01;;;;;;;11.57;8.98;;;27.80;99.90;;;;;;5085653;28;20224;-64
2021/09/05 12:03:30;;;;;;;10.20;9.18;;;27.80;99.90;;;;;;5080949;28;20231;-64
2021/09/05 12:05:59;;;;;;;10.30;9.07;;;27.80;99.90;;;;;;5051847;28;20539;-65
2021/09/05 12:08:28;;;;;;;12.45;10.82;;;27.80;99.90;;;;;;5072547;28;20176;-65
2021/09/05 12:11:04;;;;;;;11.55;9.93;;;27.80;99.90;;;;;;5087462;28;20192;-64
2021/09/05 12:13:55;;;;;;;14.55;10.35;;;27.80;99.90;;;;;;5063693;28;20270;-64
2021/09/05 12:16:27;;;;;;;12.27;8.88;;;27.80;99.90;;;;;;5077307;28;20229;-64
2021/09/05 12:19:03;;;;;;;11.73;8.93;;;27.90;99.90;;;;;;5079267;28;20237;-65
2021/09/05 12:21:33;;;;;;;10.50;8.88;;;28.10;99.90;;;;;;5081922;28;20250;-65
2021/09/05 12:24:02;;;;;;;8.75;7.85;;;28.00;99.90;;;;;;5079750;28;20189;-64
2021/09/05 12:26:37;;;;;;;10.73;8.50;;;28.00;99.90;;;;;;5068179;28;20176;-64
2021/09/05 12:29:06;;;;;;;9.75;8.63;;;27.90;99.90;;;;;;5085398;28;20189;-64
2021/09/05 12:31:42;;;;;;;10.68;7.88;;;27.90;99.90;;;;;;5081374;28;20177;-64
2021/09/05 12:34:11;;;;;;;8.50;7.70;;;27.80;99.90;;;;;;5084817;28;20182;-64
2021/09/05 12:36:40;;;;;;;9.13;8.02;;;27.70;99.90;;;;;;5087435;28;20261;-64
2021/09/05 12:39:09;;;;;;;14.40;8.95;;;27.70;99.90;;;;;;5072740;28;20203;-65
2021/09/05 12:41:38;;;;;;;13.70;11.07;;;27.60;99.90;;;;;;5086637;28;20363;-65
2021/09/05 12:44:07;;;;;;;13.83;10.60;;;27.50;99.90;;;;;;5084284;28;20200;-64